createdAt,value
2022-10-11T00:01:56.941Z,72.04
2022-10-11T00:04:31.394Z,71.97
2022-10-11T00:07:03.745Z,71.92
2022-10-11T00:09:35.900Z,72.00
2022-10-11T00:12:08.641Z,71.97
2022-10-11T00:14:40.763Z,71.98
2022-10-11T00:17:12.911Z,71.88
2022-10-11T00:19:47.235Z,71.81
2022-10-11T00:22:19.511Z,71.76
2022-10-11T00:24:52.968Z,71.74
2022-10-11T00:27:24.958Z,71.79
2022-10-11T00:29:57.109Z,71.88
2022-10-11T00:32:29.325Z,71.87
2022-10-11T00:35:04.820Z,71.97
2022-10-11T00:37:40.393Z,71.98
2022-10-11T00:40:17.784Z,72.06
2022-10-11T00:42:50.032Z,71.99
2022-10-11T00:45:56.788Z,71.88
2022-10-11T00:48:32.981Z,72.07
2022-10-11T00:51:14.386Z,72.30
2022-10-11T00:53:52.265Z,72.40
2022-10-11T00:56:29.126Z,72.54
2022-10-11T00:59:03.514Z,72.61
2022-10-11T01:01:35.714Z,72.74
2022-10-11T01:04:08.681Z,72.57
2022-10-11T01:06:44.763Z,72.65
2022-10-11T01:09:17.712Z,72.85
2022-10-11T01:11:51.801Z,73.09
2022-10-11T01:14:48.140Z,73.12
2022-10-11T01:17:29.602Z,73.16
2022-10-11T01:20:23.499Z,73.18
2022-10-11T01:23:25.642Z,73.31
2022-10-11T01:26:15.089Z,73.32
2022-10-11T01:28:53.319Z,73.45
2022-10-11T01:31:30.010Z,73.76
2022-10-11T01:34:06.750Z,74.21
2022-10-11T01:36:46.362Z,74.32
2022-10-11T01:39:25.250Z,74.59
2022-10-11T01:42:01.523Z,74.98
2022-10-11T01:44:35.478Z,75.42
2022-10-11T01:47:07.613Z,75.64
2022-10-11T01:49:38.073Z,75.56
2022-10-11T01:52:11.603Z,75.74
2022-10-11T01:55:09.107Z,76.00
2022-10-11T01:57:55.033Z,76.25
2022-10-11T02:00:32.837Z,76.47
2022-10-11T02:03:14.236Z,76.84
2022-10-11T02:05:53.095Z,76.81
2022-10-11T02:08:33.429Z,77.20
2022-10-11T02:11:14.839Z,77.34
2022-10-11T02:13:54.411Z,77.51
2022-10-11T02:16:32.634Z,77.60
2022-10-11T02:19:07.801Z,77.78
2022-10-11T02:21:43.514Z,77.96
2022-10-11T02:24:23.206Z,78.10
2022-10-11T02:26:58.020Z,78.35
2022-10-11T02:29:33.781Z,78.27
2022-10-11T02:32:06.277Z,78.41
2022-10-11T02:34:42.226Z,78.55
2022-10-11T02:37:22.835Z,78.59
2022-10-11T02:39:58.504Z,78.55
2022-10-11T02:42:37.216Z,78.54
2022-10-11T02:45:16.049Z,78.65
2022-10-11T02:47:49.298Z,78.69
2022-10-11T02:50:22.909Z,78.80
2022-10-11T02:52:54.913Z,78.71
2022-10-11T02:55:25.420Z,78.84
2022-10-11T02:57:57.625Z,78.97
2022-10-11T03:00:29.897Z,79.32
2022-10-11T03:03:01.759Z,79.29
2022-10-11T03:05:40.358Z,79.57
2022-10-11T03:08:14.770Z,79.40
2022-10-11T03:10:47.098Z,79.47
2022-10-11T03:13:19.062Z,79.53
2022-10-11T03:16:02.415Z,79.63
2022-10-11T03:18:35.354Z,80.04
2022-10-11T03:21:07.303Z,80.17
2022-10-11T03:23:37.772Z,80.15
2022-10-11T03:26:09.900Z,80.47
2022-10-11T03:28:42.159Z,80.63
2022-10-11T03:31:12.546Z,80.79
2022-10-11T03:33:44.453Z,80.71
2022-10-11T03:36:17.029Z,80.73
2022-10-11T03:38:49.067Z,80.91
2022-10-11T03:41:19.516Z,80.91
2022-10-11T03:43:51.609Z,80.96
2022-10-11T03:46:23.629Z,81.02
2022-10-11T03:48:55.551Z,81.07
2022-10-11T03:51:28.166Z,81.17
2022-10-11T03:54:00.686Z,81.25
2022-10-11T03:56:31.420Z,81.16
2022-10-11T03:59:03.298Z,81.18
2022-10-11T04:01:38.171Z,81.16
2022-10-11T04:04:10.242Z,81.15
2022-10-11T04:06:40.817Z,81.22
2022-10-11T04:09:12.911Z,81.06
2022-10-11T04:11:44.888Z,81.13
2022-10-11T04:14:17.269Z,81.32
2022-10-11T04:16:49.165Z,81.32
2022-10-11T04:19:20.294Z,81.37
2022-10-11T04:21:52.267Z,81.50
2022-10-11T04:24:24.205Z,81.54
2022-10-11T04:26:56.094Z,81.85
2022-10-11T04:29:32.288Z,81.77
2022-10-11T04:32:04.749Z,81.94
2022-10-11T04:34:35.476Z,81.88
2022-10-11T04:37:07.488Z,82.07
2022-10-11T04:39:38.290Z,82.09
2022-10-11T04:42:10.442Z,81.94
2022-10-11T04:44:42.405Z,82.09
2022-10-11T04:47:15.511Z,82.36
2022-10-11T04:49:47.427Z,82.29
2022-10-11T04:52:23.343Z,82.42
2022-10-11T04:54:57.308Z,82.45
2022-10-11T04:57:29.324Z,82.55
2022-10-11T05:00:01.366Z,82.32
2022-10-11T05:02:33.545Z,82.25
2022-10-11T05:05:04.354Z,82.43
2022-10-11T05:07:37.274Z,82.32
2022-10-11T05:10:11.374Z,82.37
2022-10-11T05:12:43.362Z,82.30
2022-10-11T05:15:15.305Z,82.42
2022-10-11T05:17:47.265Z,82.43
2022-10-11T05:20:19.521Z,82.54
2022-10-11T05:22:51.485Z,82.46
2022-10-11T05:25:23.374Z,82.60
2022-10-11T05:27:55.513Z,82.40
2022-10-11T05:30:27.676Z,82.60
2022-10-11T05:32:58.136Z,82.32
2022-10-11T05:35:30.108Z,82.57
2022-10-11T05:38:01.966Z,82.67
2022-10-11T05:40:34.036Z,82.58
2022-10-11T05:43:04.688Z,82.56
2022-10-11T05:45:38.841Z,82.77
2022-10-11T05:48:11.228Z,82.80
2022-10-11T05:50:43.408Z,82.57
2022-10-11T05:53:15.494Z,82.64
2022-10-11T05:55:47.369Z,82.82
2022-10-11T05:58:18.794Z,82.90
2022-10-11T06:00:50.881Z,83.13
2022-10-11T06:03:22.797Z,83.18
2022-10-11T06:05:57.034Z,83.41
2022-10-11T06:08:29.702Z,83.58
2022-10-11T06:11:12.049Z,83.63
2022-10-11T06:13:44.768Z,83.87
2022-10-11T06:16:17.175Z,83.41
2022-10-11T06:18:49.340Z,82.95
2022-10-11T06:21:19.714Z,83.12
2022-10-11T06:23:58.366Z,83.11
2022-10-11T06:26:33.213Z,82.69
2022-10-11T06:29:05.459Z,82.26
2022-10-11T06:31:38.305Z,82.01
2022-10-11T06:34:08.832Z,81.89
2022-10-11T06:36:40.854Z,82.11
2022-10-11T06:39:11.825Z,81.63
2022-10-11T06:41:43.768Z,81.57
2022-10-11T06:44:16.774Z,81.69
2022-10-11T06:46:49.004Z,82.18
2022-10-11T06:49:23.307Z,82.15
2022-10-11T06:51:55.846Z,82.06
2022-10-11T06:54:28.211Z,82.08
2022-10-11T06:57:01.157Z,81.36
2022-10-11T06:59:33.611Z,81.43
2022-10-11T07:02:05.896Z,81.44
2022-10-11T07:04:37.981Z,81.75
2022-10-11T07:07:10.003Z,81.47
2022-10-11T07:09:41.967Z,81.86
2022-10-11T07:12:12.389Z,81.84
2022-10-11T07:14:44.686Z,82.31
2022-10-11T07:17:16.929Z,82.32
2022-10-11T07:19:49.661Z,81.93
2022-10-11T07:22:21.925Z,81.46
2022-10-11T07:24:54.062Z,81.13
2022-10-11T07:27:26.623Z,80.32
2022-10-11T07:29:58.860Z,79.47
2022-10-11T07:32:31.222Z,79.23
2022-10-11T07:35:01.735Z,79.19
2022-10-11T07:37:34.248Z,79.39
2022-10-11T07:40:10.853Z,79.30
2022-10-11T07:42:42.904Z,79.58
2022-10-11T07:45:15.368Z,79.76
2022-10-11T07:47:47.628Z,80.02
2022-10-11T07:50:18.310Z,80.42
2022-10-11T07:52:50.306Z,80.82
2022-10-11T07:55:22.348Z,80.69
2022-10-11T07:57:52.792Z,80.29
2022-10-11T08:00:25.454Z,79.98
2022-10-11T08:02:57.606Z,79.32
2022-10-11T08:05:29.892Z,79.29
2022-10-11T08:08:01.832Z,78.92
2022-10-11T08:10:37.661Z,79.26
2022-10-11T08:13:10.283Z,79.38
2022-10-11T08:15:42.623Z,79.21
2022-10-11T08:18:14.814Z,79.22
2022-10-11T08:20:47.366Z,78.33
2022-10-11T08:23:20.164Z,76.95
2022-10-11T08:25:57.486Z,76.90
2022-10-11T08:28:37.124Z,75.89
2022-10-11T08:31:12.840Z,75.96
2022-10-11T08:33:45.093Z,74.65
2022-10-11T08:36:17.434Z,73.26
2022-10-11T08:38:49.604Z,73.67
2022-10-11T08:41:39.019Z,73.39
2022-10-11T08:44:24.037Z,73.11
2022-10-11T08:47:04.069Z,71.60
2022-10-11T08:49:36.872Z,70.07
2022-10-11T08:52:20.192Z,68.93
2022-10-11T08:54:56.123Z,68.13
2022-10-11T08:57:31.512Z,65.67
2022-10-11T09:00:06.897Z,66.40
2022-10-11T09:03:07.537Z,65.75
2022-10-11T09:05:52.385Z,67.07
2022-10-11T09:08:34.483Z,68.12
2022-10-11T09:11:10.846Z,67.22
2022-10-11T09:14:08.466Z,66.47
2022-10-11T09:16:54.864Z,66.17
2022-10-11T09:19:44.523Z,64.98
2022-10-11T09:22:28.116Z,64.16
2022-10-11T09:25:12.886Z,63.76
2022-10-11T09:28:02.349Z,62.00
2022-10-11T09:30:37.181Z,62.21
2022-10-11T09:33:18.888Z,62.89
2022-10-11T09:35:53.060Z,62.40
2022-10-11T09:38:39.730Z,62.07
2022-10-11T09:41:19.588Z,60.68
2022-10-11T09:43:53.737Z,59.87
2022-10-11T09:46:32.169Z,59.77
2022-10-11T09:49:08.875Z,60.04
2022-10-11T09:51:42.284Z,60.81
2022-10-11T09:54:14.459Z,60.72
2022-10-11T09:56:48.043Z,57.83
2022-10-11T09:59:29.230Z,57.50
2022-10-11T10:02:21.884Z,57.82
2022-10-11T10:05:03.135Z,57.21
2022-10-11T10:07:36.900Z,57.97
2022-10-11T10:10:32.201Z,57.19
2022-10-11T10:13:07.279Z,58.10
2022-10-11T10:15:46.190Z,57.90
2022-10-11T10:18:25.130Z,57.86
2022-10-11T10:21:00.505Z,56.61
2022-10-11T10:23:36.555Z,58.02
2022-10-11T10:26:20.763Z,59.23
2022-10-11T10:29:06.078Z,59.80
2022-10-11T10:32:01.974Z,56.44
2022-10-11T10:34:37.666Z,56.52
2022-10-11T10:37:19.610Z,57.63
2022-10-11T10:39:56.479Z,58.69
2022-10-11T10:42:29.109Z,58.36
2022-10-11T10:45:01.559Z,58.23
2022-10-11T10:47:52.998Z,59.43
2022-10-11T10:50:32.542Z,59.11
2022-10-11T10:53:14.058Z,59.12
2022-10-11T10:55:52.720Z,58.10
2022-10-11T10:58:42.343Z,57.99
2022-10-11T11:01:21.663Z,57.16
2022-10-11T11:04:01.325Z,55.73
2022-10-11T11:06:39.651Z,54.44
2022-10-11T11:09:29.166Z,56.00
2022-10-11T11:12:13.166Z,55.08
2022-10-11T11:14:55.732Z,55.14
2022-10-11T11:17:39.592Z,56.08
2022-10-11T11:20:25.902Z,56.91
2022-10-11T11:23:04.459Z,57.14
2022-10-11T11:25:48.523Z,56.91
2022-10-11T11:28:34.559Z,55.94
2022-10-11T11:31:16.920Z,55.68
2022-10-11T11:34:00.867Z,55.37
2022-10-11T11:36:40.075Z,56.69
2022-10-11T11:39:18.134Z,56.91
2022-10-11T11:41:56.589Z,56.41
2022-10-11T11:44:34.028Z,55.85
2022-10-11T11:47:12.209Z,54.90
2022-10-11T11:49:47.357Z,55.55
2022-10-11T11:52:27.930Z,55.03
2022-10-11T11:55:09.507Z,55.75
2022-10-11T11:57:55.752Z,56.29
2022-10-11T12:00:31.597Z,55.11
2022-10-11T12:03:10.719Z,54.73
2022-10-11T12:06:23.560Z,54.28
2022-10-11T12:09:04.071Z,54.14
2022-10-11T12:11:55.751Z,54.47
2022-10-11T12:14:36.875Z,53.27
2022-10-11T12:17:18.521Z,53.74
2022-10-11T12:20:11.333Z,53.91
2022-10-11T12:23:01.431Z,54.13
2022-10-11T12:25:43.491Z,54.28
2022-10-11T12:29:01.147Z,54.87
2022-10-11T12:31:35.473Z,53.97
2022-10-11T12:34:38.448Z,53.76
2022-10-11T12:37:50.965Z,54.00
2022-10-11T12:40:41.883Z,53.80
2022-10-11T12:43:27.108Z,53.90
2022-10-11T12:46:19.343Z,54.18
2022-10-11T12:48:55.964Z,54.12
2022-10-11T12:51:41.120Z,54.41
2022-10-11T12:54:34.633Z,54.44
2022-10-11T12:57:46.155Z,54.86
2022-10-11T13:00:28.307Z,53.91
2022-10-11T13:03:02.377Z,53.23
2022-10-11T13:05:45.331Z,53.36
2022-10-11T13:08:24.994Z,53.20
2022-10-11T13:11:03.372Z,52.79
2022-10-11T13:13:39.761Z,52.16
2022-10-11T13:16:16.142Z,51.42
2022-10-11T13:18:55.293Z,52.42
2022-10-11T13:21:36.211Z,52.72
2022-10-11T13:24:14.708Z,52.19
2022-10-11T13:26:49.286Z,51.57
2022-10-11T13:29:28.660Z,52.54
2022-10-11T13:32:01.827Z,52.84
2022-10-11T13:34:38.972Z,53.21
2022-10-11T13:37:17.359Z,53.55
2022-10-11T13:39:52.247Z,53.80
2022-10-11T13:42:30.580Z,53.65
2022-10-11T13:45:04.706Z,54.08
2022-10-11T13:47:38.010Z,54.12
2022-10-11T13:50:22.770Z,54.26
2022-10-11T13:52:59.483Z,54.60
2022-10-11T13:55:36.295Z,54.49
2022-10-11T14:01:08.085Z,54.04
2022-10-11T14:03:47.795Z,53.85
2022-10-11T14:06:19.955Z,53.59
2022-10-11T14:08:55.180Z,53.87
2022-10-11T14:11:38.696Z,53.41
2022-10-11T14:14:42.430Z,53.85
2022-10-11T14:17:19.917Z,53.64
2022-10-11T14:20:11.545Z,54.05
2022-10-11T14:22:44.273Z,54.01
2022-10-11T14:25:16.992Z,53.64
2022-10-11T14:27:49.807Z,52.69
2022-10-11T14:30:26.643Z,52.82
2022-10-11T14:33:03.052Z,53.63
2022-10-11T14:35:39.068Z,53.61
2022-10-11T14:38:13.757Z,53.00
2022-10-11T14:40:45.989Z,53.21
2022-10-11T14:43:18.093Z,53.22
2022-10-11T14:45:51.837Z,53.50
2022-10-11T14:48:50.286Z,53.19
2022-10-11T14:51:22.264Z,53.46
2022-10-11T14:53:54.870Z,53.89
2022-10-11T14:56:26.999Z,53.87
2022-10-11T14:58:59.152Z,54.12
2022-10-11T15:01:31.388Z,54.18
2022-10-11T15:04:04.668Z,54.31
2022-10-11T15:06:41.709Z,54.54
2022-10-11T15:09:13.942Z,54.76
2022-10-11T15:11:46.124Z,55.16
2022-10-11T15:14:18.694Z,55.34
2022-10-11T15:16:51.074Z,55.81
2022-10-11T15:19:22.232Z,55.67
2022-10-11T15:21:54.395Z,55.83
2022-10-11T15:24:28.082Z,55.87
2022-10-11T15:27:00.033Z,55.73
2022-10-11T15:29:30.500Z,55.97
2022-10-11T15:32:02.664Z,56.25
2022-10-11T15:34:33.120Z,56.09
2022-10-11T15:37:07.930Z,56.21
2022-10-11T15:39:40.073Z,56.31
2022-10-11T15:42:10.485Z,56.50
2022-10-11T15:44:43.174Z,56.67
2022-10-11T15:47:15.691Z,56.75
2022-10-11T15:49:47.691Z,56.80
2022-10-11T15:52:18.357Z,56.80
2022-10-11T15:54:50.323Z,57.03
2022-10-11T15:57:20.699Z,57.15
2022-10-11T15:59:52.546Z,57.29
2022-10-11T16:02:25.677Z,57.50
2022-10-11T16:04:57.638Z,57.94
2022-10-11T16:07:29.837Z,58.60
2022-10-11T16:10:01.965Z,58.84
2022-10-11T16:12:34.014Z,58.81
2022-10-11T16:15:06.941Z,59.16
2022-10-11T16:17:39.312Z,59.62
2022-10-11T16:20:11.979Z,59.73
2022-10-11T16:22:44.619Z,59.93
2022-10-11T16:25:16.805Z,59.60
2022-10-11T16:27:48.923Z,59.95
2022-10-11T16:30:21.448Z,60.14
2022-10-11T16:32:53.597Z,60.33
2022-10-11T16:35:24.965Z,60.67
2022-10-11T16:37:59.044Z,61.17
2022-10-11T16:40:31.161Z,61.72
2022-10-11T16:43:07.418Z,62.13
2022-10-11T16:45:40.288Z,62.31
2022-10-11T16:48:12.233Z,62.69
2022-10-11T16:50:42.648Z,63.07
2022-10-11T16:53:15.645Z,63.54
2022-10-11T16:55:47.689Z,64.10
2022-10-11T16:58:19.634Z,64.39
2022-10-11T17:00:51.729Z,65.28
2022-10-11T17:03:22.161Z,65.93
2022-10-11T17:05:54.125Z,66.34
2022-10-11T17:08:26.373Z,66.74
2022-10-11T17:10:59.107Z,67.13
2022-10-11T17:13:31.166Z,67.40
2022-10-11T17:16:03.551Z,67.74
2022-10-11T17:18:35.873Z,68.01
2022-10-11T17:21:12.012Z,68.27
2022-10-11T17:23:44.213Z,68.78
2022-10-11T17:26:19.108Z,69.03
2022-10-11T17:28:51.804Z,69.31
2022-10-11T17:31:24.888Z,69.35
2022-10-11T17:33:58.763Z,69.71
2022-10-11T17:36:34.802Z,69.73
2022-10-11T17:39:09.396Z,69.88
2022-10-11T17:41:42.231Z,70.08
2022-10-11T17:44:17.463Z,70.20
2022-10-11T17:46:51.645Z,70.29
2022-10-11T17:49:24.350Z,70.44
2022-10-11T17:51:56.743Z,70.62
2022-10-11T17:54:29.610Z,70.98
2022-10-11T17:57:02.990Z,71.13
2022-10-11T17:59:37.842Z,71.18
2022-10-11T18:02:10.364Z,71.66
2022-10-11T18:04:43.059Z,71.73
2022-10-11T18:07:17.603Z,71.82
2022-10-11T18:09:51.031Z,72.01
2022-10-11T18:12:23.863Z,72.12
2022-10-11T18:15:02.390Z,72.19
2022-10-11T18:17:35.089Z,72.28
2022-10-11T18:20:11.955Z,72.26
2022-10-11T18:22:44.255Z,72.47
2022-10-11T18:25:16.881Z,72.48
2022-10-11T18:27:49.877Z,72.48
2022-10-11T18:30:22.346Z,72.70
2022-10-11T18:32:57.855Z,72.86
2022-10-11T18:35:28.363Z,72.98
2022-10-11T18:38:01.147Z,72.91
2022-10-11T18:40:33.993Z,73.24
2022-10-11T18:43:06.438Z,73.53
2022-10-11T18:45:39.399Z,73.64
2022-10-11T18:48:11.575Z,73.76
2022-10-11T18:50:43.651Z,73.64
2022-10-11T18:53:15.677Z,73.64
2022-10-11T18:55:47.736Z,73.91
2022-10-11T18:58:18.574Z,74.03
2022-10-11T19:00:51.518Z,74.12
2022-10-11T19:03:24.035Z,74.69
2022-10-11T19:05:57.327Z,74.84
2022-10-11T19:08:30.216Z,74.69
2022-10-11T19:11:10.645Z,74.67
2022-10-11T19:13:44.415Z,74.85
2022-10-11T19:16:18.527Z,74.78
2022-10-11T19:18:52.608Z,74.81
2022-10-11T19:21:25.880Z,74.95
2022-10-11T19:23:58.613Z,75.18
2022-10-11T19:26:33.782Z,75.36
2022-10-11T19:29:09.059Z,75.40
2022-10-11T19:31:44.610Z,75.43
2022-10-11T19:34:17.595Z,75.54
2022-10-11T19:36:52.951Z,75.55
2022-10-11T19:39:26.104Z,75.59
2022-10-11T19:41:58.183Z,75.21
2022-10-11T19:44:32.517Z,74.85
2022-10-11T19:47:08.192Z,75.29
2022-10-11T19:49:40.104Z,75.45
2022-10-11T19:52:13.391Z,75.28
2022-10-11T19:54:45.785Z,75.28
2022-10-11T19:57:16.129Z,75.55
2022-10-11T19:59:48.310Z,75.92
2022-10-11T20:02:20.716Z,75.94
2022-10-11T20:04:53.265Z,75.62
2022-10-11T20:07:25.518Z,75.74
2022-10-11T20:09:57.537Z,75.89
2022-10-11T20:12:29.807Z,76.17
2022-10-11T20:15:01.996Z,76.10
2022-10-11T20:17:46.438Z,76.07
2022-10-11T20:20:19.713Z,76.01
2022-10-11T20:22:53.553Z,75.75
2022-10-11T20:25:25.885Z,75.75
2022-10-11T20:27:56.302Z,76.07
2022-10-11T20:30:28.315Z,76.07
2022-10-11T20:33:00.205Z,76.49
2022-10-11T20:35:32.468Z,76.55
2022-10-11T20:38:02.855Z,76.60
2022-10-11T20:40:35.165Z,76.51
2022-10-11T20:43:07.349Z,76.68
2022-10-11T20:45:37.876Z,76.53
2022-10-11T20:48:09.872Z,76.73
2022-10-11T20:50:46.529Z,76.91
2022-10-11T20:53:18.437Z,76.94
2022-10-11T20:55:51.086Z,76.58
2022-10-11T20:58:24.220Z,76.99
2022-10-11T21:00:56.288Z,77.00
2022-10-11T21:03:28.261Z,76.99
2022-10-11T21:06:03.586Z,77.18
2022-10-11T21:08:36.922Z,77.14
2022-10-11T21:11:10.813Z,77.32
2022-10-11T21:13:42.942Z,77.38
2022-10-11T21:16:16.889Z,77.34
2022-10-11T21:18:53.171Z,77.71
2022-10-11T21:21:25.993Z,78.22
2022-10-11T21:23:59.129Z,78.41
2022-10-11T21:26:32.066Z,78.10
2022-10-11T21:29:04.801Z,78.11
2022-10-11T21:31:36.808Z,77.96
2022-10-11T21:34:09.103Z,77.96
2022-10-11T21:36:41.198Z,77.89
2022-10-11T21:39:13.200Z,77.78
2022-10-11T21:41:46.567Z,77.75
2022-10-11T21:44:19.133Z,77.64
2022-10-11T21:47:07.633Z,77.45
2022-10-11T21:49:39.971Z,77.59
2022-10-11T21:52:12.316Z,77.73
2022-10-11T21:54:44.294Z,77.94
2022-10-11T21:57:16.253Z,77.57
2022-10-11T21:59:48.323Z,77.52
2022-10-11T22:02:20.265Z,77.51
2022-10-11T22:04:52.273Z,77.62
2022-10-11T22:07:24.477Z,77.92
2022-10-11T22:09:55.027Z,77.57
2022-10-11T22:12:26.984Z,77.33
2022-10-11T22:14:59.000Z,77.27
2022-10-11T22:17:30.998Z,77.62
2022-10-11T22:20:03.206Z,77.71
2022-10-11T22:22:35.604Z,77.66
2022-10-11T22:25:09.504Z,77.65
2022-10-11T22:27:41.461Z,77.86
2022-10-11T22:30:14.160Z,77.55
2022-10-11T22:32:46.087Z,77.50
2022-10-11T22:35:18.255Z,77.22
2022-10-11T22:37:51.083Z,77.34
2022-10-11T22:40:23.117Z,77.81
2022-10-11T22:42:54.950Z,77.41
2022-10-11T22:45:26.868Z,77.59
2022-10-11T22:47:58.947Z,77.49
2022-10-11T22:50:30.939Z,77.73
2022-10-11T22:53:01.510Z,77.82
2022-10-11T22:55:33.828Z,77.93
2022-10-11T22:58:06.724Z,77.84
2022-10-11T23:00:38.832Z,77.93
2022-10-11T23:03:09.293Z,77.68
2022-10-11T23:05:44.352Z,77.97
2022-10-11T23:08:14.810Z,77.87
2022-10-11T23:10:46.735Z,77.88
2022-10-11T23:13:19.067Z,77.98
2022-10-11T23:15:50.986Z,78.07
2022-10-11T23:18:23.213Z,78.18
2022-10-11T23:20:53.633Z,78.14
2022-10-11T23:23:25.677Z,78.01
2022-10-11T23:26:05.194Z,78.25
2022-10-11T23:28:37.458Z,78.33
2022-10-11T23:31:14.521Z,78.41
2022-10-11T23:33:48.150Z,78.45
2022-10-11T23:36:22.635Z,77.99
2022-10-11T23:38:56.273Z,77.89
2022-10-11T23:41:30.628Z,77.79
2022-10-11T23:44:02.717Z,77.99
2022-10-11T23:46:35.051Z,77.98
2022-10-11T23:49:07.289Z,78.06
2022-10-11T23:51:39.212Z,78.03
2022-10-11T23:54:11.901Z,78.15
2022-10-11T23:56:44.030Z,78.29
2022-10-11T23:59:14.593Z,78.39
